sensor_id;sensor_type;location;lat;lon;timestamp;P1;durP1;ratioP1;P2;durP2;ratioP2
26034;SDS011;13809;48.632;11.576;2023-07-02T00:00:29;2.37;;;2.10;;
26034;SDS011;13809;48.632;11.576;2023-07-02T00:05:32;2.30;;;2.13;;
26034;SDS011;13809;48.632;11.576;2023-07-02T00:10:37;2.40;;;2.20;;
26034;SDS011;13809;48.632;11.576;2023-07-02T00:15:40;3.77;;;2.13;;
26034;SDS011;13809;48.632;11.576;2023-07-02T00:20:43;2.90;;;2.40;;
26034;SDS011;13809;48.632;11.576;2023-07-02T00:25:49;3.23;;;2.30;;
26034;SDS011;13809;48.632;11.576;2023-07-02T00:30:52;2.60;;;2.40;;
26034;SDS011;13809;48.632;11.576;2023-07-02T00:35:55;2.30;;;1.90;;
26034;SDS011;13809;48.632;11.576;2023-07-02T00:41:00;2.40;;;2.20;;
26034;SDS011;13809;48.632;11.576;2023-07-02T00:46:05;2.50;;;2.30;;
26034;SDS011;13809;48.632;11.576;2023-07-02T00:51:08;3.00;;;2.70;;
26034;SDS011;13809;48.632;11.576;2023-07-02T00:56:14;3.60;;;2.40;;
26034;SDS011;13809;48.632;11.576;2023-07-02T01:01:18;2.40;;;2.20;;
26034;SDS011;13809;48.632;11.576;2023-07-02T01:06:23;2.67;;;2.33;;
26034;SDS011;13809;48.632;11.576;2023-07-02T01:11:29;2.43;;;2.30;;
26034;SDS011;13809;48.632;11.576;2023-07-02T01:16:35;2.73;;;2.53;;
26034;SDS011;13809;48.632;11.576;2023-07-02T01:21:42;2.40;;;2.20;;
26034;SDS011;13809;48.632;11.576;2023-07-02T01:26:45;3.73;;;2.20;;
26034;SDS011;13809;48.632;11.576;2023-07-02T01:31:48;3.27;;;2.40;;
26034;SDS011;13809;48.632;11.576;2023-07-02T01:36:53;2.20;;;2.10;;
26034;SDS011;13809;48.632;11.576;2023-07-02T01:42:06;3.53;;;2.43;;
26034;SDS011;13809;48.632;11.576;2023-07-02T01:47:11;2.30;;;2.10;;
26034;SDS011;13809;48.632;11.576;2023-07-02T01:52:16;2.20;;;2.10;;
26034;SDS011;13809;48.632;11.576;2023-07-02T01:57:19;2.50;;;2.33;;
26034;SDS011;13809;48.632;11.576;2023-07-02T02:02:22;2.37;;;2.20;;
26034;SDS011;13809;48.632;11.576;2023-07-02T02:07:27;2.83;;;2.40;;
26034;SDS011;13809;48.632;11.576;2023-07-02T02:12:31;3.13;;;2.20;;
26034;SDS011;13809;48.632;11.576;2023-07-02T02:17:34;2.37;;;2.20;;
26034;SDS011;13809;48.632;11.576;2023-07-02T02:22:39;2.20;;;2.10;;
26034;SDS011;13809;48.632;11.576;2023-07-02T02:27:42;2.50;;;2.30;;
26034;SDS011;13809;48.632;11.576;2023-07-02T02:32:45;2.83;;;2.57;;
26034;SDS011;13809;48.632;11.576;2023-07-02T02:37:52;2.80;;;2.47;;
26034;SDS011;13809;48.632;11.576;2023-07-02T02:42:55;2.80;;;2.50;;
26034;SDS011;13809;48.632;11.576;2023-07-02T02:47:58;2.43;;;2.23;;
26034;SDS011;13809;48.632;11.576;2023-07-02T02:53:03;2.63;;;2.43;;
26034;SDS011;13809;48.632;11.576;2023-07-02T02:58:06;2.70;;;2.50;;
26034;SDS011;13809;48.632;11.576;2023-07-02T03:03:09;2.77;;;2.40;;
26034;SDS011;13809;48.632;11.576;2023-07-02T03:08:14;2.40;;;2.20;;
26034;SDS011;13809;48.632;11.576;2023-07-02T03:13:17;2.60;;;2.40;;
26034;SDS011;13809;48.632;11.576;2023-07-02T03:18:20;2.40;;;2.20;;
26034;SDS011;13809;48.632;11.576;2023-07-02T03:23:25;2.73;;;2.53;;
26034;SDS011;13809;48.632;11.576;2023-07-02T03:28:28;2.60;;;2.40;;
26034;SDS011;13809;48.632;11.576;2023-07-02T03:33:31;4.57;;;2.73;;
26034;SDS011;13809;48.632;11.576;2023-07-02T03:38:36;2.50;;;2.30;;
26034;SDS011;13809;48.632;11.576;2023-07-02T03:43:40;3.07;;;2.77;;
26034;SDS011;13809;48.632;11.576;2023-07-02T03:48:43;2.47;;;2.27;;
26034;SDS011;13809;48.632;11.576;2023-07-02T03:53:48;2.60;;;2.13;;
26034;SDS011;13809;48.632;11.576;2023-07-02T03:58:51;3.93;;;2.30;;
26034;SDS011;13809;48.632;11.576;2023-07-02T04:03:54;2.77;;;2.40;;
26034;SDS011;13809;48.632;11.576;2023-07-02T04:09:00;3.13;;;2.60;;
26034;SDS011;13809;48.632;11.576;2023-07-02T04:14:03;2.57;;;2.37;;
26034;SDS011;13809;48.632;11.576;2023-07-02T04:19:06;2.60;;;2.40;;
26034;SDS011;13809;48.632;11.576;2023-07-02T04:24:11;2.30;;;2.10;;
26034;SDS011;13809;48.632;11.576;2023-07-02T04:29:14;2.37;;;2.17;;
26034;SDS011;13809;48.632;11.576;2023-07-02T04:34:18;3.13;;;2.30;;
26034;SDS011;13809;48.632;11.576;2023-07-02T04:39:24;2.50;;;2.30;;
26034;SDS011;13809;48.632;11.576;2023-07-02T04:44:27;2.47;;;2.30;;
26034;SDS011;13809;48.632;11.576;2023-07-02T04:49:31;2.37;;;2.17;;
26034;SDS011;13809;48.632;11.576;2023-07-02T04:54:36;2.53;;;2.33;;
26034;SDS011;13809;48.632;11.576;2023-07-02T04:59:39;2.60;;;1.90;;
26034;SDS011;13809;48.632;11.576;2023-07-02T05:04:43;2.63;;;2.37;;
26034;SDS011;13809;48.632;11.576;2023-07-02T05:09:48;2.20;;;2.10;;
26034;SDS011;13809;48.632;11.576;2023-07-02T05:14:53;2.33;;;2.10;;
26034;SDS011;13809;48.632;11.576;2023-07-02T05:19:56;2.90;;;2.23;;
26034;SDS011;13809;48.632;11.576;2023-07-02T05:25:01;2.50;;;2.30;;
26034;SDS011;13809;48.632;11.576;2023-07-02T05:30:05;2.80;;;2.17;;
26034;SDS011;13809;48.632;11.576;2023-07-02T05:35:09;3.70;;;2.43;;
26034;SDS011;13809;48.632;11.576;2023-07-02T05:40:13;2.23;;;2.03;;
26034;SDS011;13809;48.632;11.576;2023-07-02T05:45:18;2.13;;;2.03;;
26034;SDS011;13809;48.632;11.576;2023-07-02T05:50:21;2.73;;;2.23;;
26034;SDS011;13809;48.632;11.576;2023-07-02T05:55:27;2.70;;;2.20;;
26034;SDS011;13809;48.632;11.576;2023-07-02T06:00:30;2.50;;;2.30;;
26034;SDS011;13809;48.632;11.576;2023-07-02T06:05:33;2.30;;;2.10;;
26034;SDS011;13809;48.632;11.576;2023-07-02T06:10:38;2.40;;;2.20;;
26034;SDS011;13809;48.632;11.576;2023-07-02T06:15:41;3.13;;;2.30;;
26034;SDS011;13809;48.632;11.576;2023-07-02T06:20:45;3.73;;;2.00;;
26034;SDS011;13809;48.632;11.576;2023-07-02T06:25:50;2.20;;;2.00;;
26034;SDS011;13809;48.632;11.576;2023-07-02T06:31:00;3.17;;;2.20;;
26034;SDS011;13809;48.632;11.576;2023-07-02T06:36:03;2.57;;;1.80;;
26034;SDS011;13809;48.632;11.576;2023-07-02T06:41:08;3.93;;;2.20;;
26034;SDS011;13809;48.632;11.576;2023-07-02T06:46:11;3.27;;;2.93;;
26034;SDS011;13809;48.632;11.576;2023-07-02T06:51:15;4.00;;;3.60;;
26034;SDS011;13809;48.632;11.576;2023-07-02T06:56:19;5.23;;;3.80;;
26034;SDS011;13809;48.632;11.576;2023-07-02T07:01:22;5.27;;;3.73;;
26034;SDS011;13809;48.632;11.576;2023-07-02T07:06:26;4.80;;;4.20;;
26034;SDS011;13809;48.632;11.576;2023-07-02T07:11:30;6.83;;;4.67;;
26034;SDS011;13809;48.632;11.576;2023-07-02T07:16:34;5.80;;;3.97;;
26034;SDS011;13809;48.632;11.576;2023-07-02T07:21:37;11.73;;;4.30;;
26034;SDS011;13809;48.632;11.576;2023-07-02T07:26:42;4.70;;;4.13;;
26034;SDS011;13809;48.632;11.576;2023-07-02T07:31:46;5.03;;;3.87;;
26034;SDS011;13809;48.632;11.576;2023-07-02T07:36:49;5.30;;;4.13;;
26034;SDS011;13809;48.632;11.576;2023-07-02T07:41:54;8.47;;;6.40;;
26034;SDS011;13809;48.632;11.576;2023-07-02T07:46:57;11.33;;;8.17;;
26034;SDS011;13809;48.632;11.576;2023-07-02T07:52:00;10.83;;;8.80;;
26034;SDS011;13809;48.632;11.576;2023-07-02T07:57:06;9.73;;;7.43;;
26034;SDS011;13809;48.632;11.576;2023-07-02T08:02:09;8.83;;;6.30;;
26034;SDS011;13809;48.632;11.576;2023-07-02T08:07:13;5.70;;;5.00;;
26034;SDS011;13809;48.632;11.576;2023-07-02T08:12:18;4.97;;;4.43;;
26034;SDS011;13809;48.632;11.576;2023-07-02T08:17:21;5.97;;;4.30;;
26034;SDS011;13809;48.632;11.576;2023-07-02T08:22:24;5.97;;;4.97;;
26034;SDS011;13809;48.632;11.576;2023-07-02T08:27:29;10.30;;;6.03;;
26034;SDS011;13809;48.632;11.576;2023-07-02T08:32:32;7.37;;;5.67;;
26034;SDS011;13809;48.632;11.576;2023-07-02T08:37:35;9.60;;;6.47;;
26034;SDS011;13809;48.632;11.576;2023-07-02T08:42:45;7.37;;;5.90;;
26034;SDS011;13809;48.632;11.576;2023-07-02T08:47:49;9.50;;;6.63;;
26034;SDS011;13809;48.632;11.576;2023-07-02T08:52:55;7.50;;;6.13;;
26034;SDS011;13809;48.632;11.576;2023-07-02T08:57:59;9.23;;;6.87;;
26034;SDS011;13809;48.632;11.576;2023-07-02T09:03:10;7.40;;;6.60;;
26034;SDS011;13809;48.632;11.576;2023-07-02T09:08:22;9.50;;;7.37;;
26034;SDS011;13809;48.632;11.576;2023-07-02T09:13:27;9.10;;;7.13;;
26034;SDS011;13809;48.632;11.576;2023-07-02T09:18:30;8.67;;;7.10;;
26034;SDS011;13809;48.632;11.576;2023-07-02T09:23:34;11.87;;;7.57;;
26034;SDS011;13809;48.632;11.576;2023-07-02T09:28:39;9.33;;;7.23;;
26034;SDS011;13809;48.632;11.576;2023-07-02T09:33:42;10.47;;;8.07;;
26034;SDS011;13809;48.632;11.576;2023-07-02T09:38:46;9.67;;;7.77;;
26034;SDS011;13809;48.632;11.576;2023-07-02T09:43:50;15.17;;;8.10;;
26034;SDS011;13809;48.632;11.576;2023-07-02T09:48:54;8.13;;;7.10;;
26034;SDS011;13809;48.632;11.576;2023-07-02T09:53:57;9.27;;;7.70;;
26034;SDS011;13809;48.632;11.576;2023-07-02T09:59:02;8.47;;;7.27;;
26034;SDS011;13809;48.632;11.576;2023-07-02T10:04:12;10.70;;;7.27;;
26034;SDS011;13809;48.632;11.576;2023-07-02T10:09:16;11.70;;;7.50;;
26034;SDS011;13809;48.632;11.576;2023-07-02T10:14:20;8.67;;;7.30;;
26034;SDS011;13809;48.632;11.576;2023-07-02T10:19:23;10.57;;;7.60;;
26034;SDS011;13809;48.632;11.576;2023-07-02T10:24:26;8.73;;;7.40;;
26034;SDS011;13809;48.632;11.576;2023-07-02T10:29:31;9.30;;;7.87;;
26034;SDS011;13809;48.632;11.576;2023-07-02T10:34:35;9.00;;;7.50;;
26034;SDS011;13809;48.632;11.576;2023-07-02T10:39:38;8.60;;;7.33;;
26034;SDS011;13809;48.632;11.576;2023-07-02T10:44:49;10.27;;;7.37;;
26034;SDS011;13809;48.632;11.576;2023-07-02T10:49:53;9.27;;;7.30;;
26034;SDS011;13809;48.632;11.576;2023-07-02T10:54:56;7.87;;;6.30;;
26034;SDS011;13809;48.632;11.576;2023-07-02T11:00:04;8.07;;;7.03;;
26034;SDS011;13809;48.632;11.576;2023-07-02T11:05:09;8.23;;;6.60;;
26034;SDS011;13809;48.632;11.576;2023-07-02T11:10:17;7.67;;;6.50;;
26034;SDS011;13809;48.632;11.576;2023-07-02T11:15:22;9.27;;;6.47;;
26034;SDS011;13809;48.632;11.576;2023-07-02T11:20:26;8.13;;;6.57;;
26034;SDS011;13809;48.632;11.576;2023-07-02T11:25:36;6.47;;;5.77;;
26034;SDS011;13809;48.632;11.576;2023-07-02T11:30:46;8.00;;;6.40;;
26034;SDS011;13809;48.632;11.576;2023-07-02T11:35:49;8.70;;;5.87;;
26034;SDS011;13809;48.632;11.576;2023-07-02T11:40:52;6.83;;;6.17;;
26034;SDS011;13809;48.632;11.576;2023-07-02T11:45:57;6.30;;;5.70;;
26034;SDS011;13809;48.632;11.576;2023-07-02T11:51:00;8.87;;;5.87;;
26034;SDS011;13809;48.632;11.576;2023-07-02T11:56:03;6.57;;;5.73;;
26034;SDS011;13809;48.632;11.576;2023-07-02T12:01:07;6.57;;;5.57;;
26034;SDS011;13809;48.632;11.576;2023-07-02T12:06:11;7.27;;;6.33;;
26034;SDS011;13809;48.632;11.576;2023-07-02T12:11:14;7.60;;;6.20;;
26034;SDS011;13809;48.632;11.576;2023-07-02T12:16:18;8.13;;;5.83;;
26034;SDS011;13809;48.632;11.576;2023-07-02T12:21:22;6.97;;;6.27;;
26034;SDS011;13809;48.632;11.576;2023-07-02T12:26:25;7.47;;;6.40;;
26034;SDS011;13809;48.632;11.576;2023-07-02T12:31:31;7.97;;;6.70;;
26034;SDS011;13809;48.632;11.576;2023-07-02T12:36:34;8.90;;;6.37;;
26034;SDS011;13809;48.632;11.576;2023-07-02T12:41:38;8.87;;;7.50;;
26034;SDS011;13809;48.632;11.576;2023-07-02T12:46:42;8.03;;;7.23;;
26034;SDS011;13809;48.632;11.576;2023-07-02T12:51:45;8.13;;;7.10;;
26034;SDS011;13809;48.632;11.576;2023-07-02T12:56:49;10.57;;;7.73;;
26034;SDS011;13809;48.632;11.576;2023-07-02T13:01:53;8.30;;;7.50;;
26034;SDS011;13809;48.632;11.576;2023-07-02T13:06:56;8.23;;;7.23;;
26034;SDS011;13809;48.632;11.576;2023-07-02T13:11:59;11.73;;;10.27;;
26034;SDS011;13809;48.632;11.576;2023-07-02T13:17:05;11.20;;;10.07;;
26034;SDS011;13809;48.632;11.576;2023-07-02T13:22:08;12.00;;;9.90;;
26034;SDS011;13809;48.632;11.576;2023-07-02T13:27:15;10.40;;;8.83;;
26034;SDS011;13809;48.632;11.576;2023-07-02T13:32:21;10.43;;;9.43;;
26034;SDS011;13809;48.632;11.576;2023-07-02T13:37:24;11.90;;;10.43;;
26034;SDS011;13809;48.632;11.576;2023-07-02T13:42:27;11.93;;;10.70;;
26034;SDS011;13809;48.632;11.576;2023-07-02T13:47:32;14.00;;;11.40;;
26034;SDS011;13809;48.632;11.576;2023-07-02T13:52:35;14.97;;;12.80;;
26034;SDS011;13809;48.632;11.576;2023-07-02T13:57:38;15.20;;;13.27;;
26034;SDS011;13809;48.632;11.576;2023-07-02T14:02:43;18.03;;;14.60;;
26034;SDS011;13809;48.632;11.576;2023-07-02T14:07:46;15.60;;;13.93;;
26034;SDS011;13809;48.632;11.576;2023-07-02T14:12:50;15.83;;;14.13;;
26034;SDS011;13809;48.632;11.576;2023-07-02T14:17:54;16.80;;;14.03;;
26034;SDS011;13809;48.632;11.576;2023-07-02T14:22:58;17.37;;;14.53;;
26034;SDS011;13809;48.632;11.576;2023-07-02T14:28:01;17.53;;;14.90;;
26034;SDS011;13809;48.632;11.576;2023-07-02T14:33:05;16.73;;;15.03;;
26034;SDS011;13809;48.632;11.576;2023-07-02T14:38:08;18.20;;;16.30;;
26034;SDS011;13809;48.632;11.576;2023-07-02T14:43:12;19.40;;;16.77;;
26034;SDS011;13809;48.632;11.576;2023-07-02T14:48:16;19.17;;;17.17;;
26034;SDS011;13809;48.632;11.576;2023-07-02T14:53:21;17.80;;;16.00;;
26034;SDS011;13809;48.632;11.576;2023-07-02T14:58:24;18.17;;;16.20;;
26034;SDS011;13809;48.632;11.576;2023-07-02T15:03:30;18.03;;;16.07;;
26034;SDS011;13809;48.632;11.576;2023-07-02T15:08:33;18.43;;;16.43;;
26034;SDS011;13809;48.632;11.576;2023-07-02T15:13:36;17.10;;;15.40;;
26034;SDS011;13809;48.632;11.576;2023-07-02T15:18:41;17.97;;;16.13;;
26034;SDS011;13809;48.632;11.576;2023-07-02T15:23:44;21.60;;;17.33;;
26034;SDS011;13809;48.632;11.576;2023-07-02T15:28:47;19.23;;;17.23;;
26034;SDS011;13809;48.632;11.576;2023-07-02T15:33:52;19.37;;;17.33;;
26034;SDS011;13809;48.632;11.576;2023-07-02T15:38:55;19.57;;;17.17;;
26034;SDS011;13809;48.632;11.576;2023-07-02T15:43:59;19.70;;;17.60;;
26034;SDS011;13809;48.632;11.576;2023-07-02T15:49:06;21.03;;;18.73;;
26034;SDS011;13809;48.632;11.576;2023-07-02T15:54:11;21.37;;;18.67;;
26034;SDS011;13809;48.632;11.576;2023-07-02T15:59:14;20.53;;;18.43;;
26034;SDS011;13809;48.632;11.576;2023-07-02T16:04:19;19.80;;;17.70;;
26034;SDS011;13809;48.632;11.576;2023-07-02T16:09:23;20.97;;;18.50;;
26034;SDS011;13809;48.632;11.576;2023-07-02T16:14:27;20.93;;;18.73;;
26034;SDS011;13809;48.632;11.576;2023-07-02T16:19:31;20.13;;;18.00;;
26034;SDS011;13809;48.632;11.576;2023-07-02T16:24:35;20.80;;;18.70;;
26034;SDS011;13809;48.632;11.576;2023-07-02T16:29:38;21.70;;;19.13;;
26034;SDS011;13809;48.632;11.576;2023-07-02T16:34:43;21.30;;;18.57;;
26034;SDS011;13809;48.632;11.576;2023-07-02T16:39:47;20.33;;;18.33;;
26034;SDS011;13809;48.632;11.576;2023-07-02T16:44:50;21.33;;;19.10;;
26034;SDS011;13809;48.632;11.576;2023-07-02T16:49:54;18.90;;;17.00;;
26034;SDS011;13809;48.632;11.576;2023-07-02T16:55:01;18.90;;;16.90;;
26034;SDS011;13809;48.632;11.576;2023-07-02T17:00:05;18.47;;;16.57;;
26034;SDS011;13809;48.632;11.576;2023-07-02T17:05:10;18.67;;;16.70;;
26034;SDS011;13809;48.632;11.576;2023-07-02T17:10:14;16.57;;;14.87;;
26034;SDS011;13809;48.632;11.576;2023-07-02T17:15:17;17.13;;;15.33;;
26034;SDS011;13809;48.632;11.576;2023-07-02T17:20:22;17.27;;;15.43;;
26034;SDS011;13809;48.632;11.576;2023-07-02T17:25:26;18.13;;;15.80;;
26034;SDS011;13809;48.632;11.576;2023-07-02T17:30:29;16.23;;;14.57;;
26034;SDS011;13809;48.632;11.576;2023-07-02T17:35:38;15.83;;;14.13;;
26034;SDS011;13809;48.632;11.576;2023-07-02T17:40:42;14.77;;;13.27;;
26034;SDS011;13809;48.632;11.576;2023-07-02T17:45:51;14.77;;;13.10;;
26034;SDS011;13809;48.632;11.576;2023-07-02T17:50:57;15.23;;;13.40;;
26034;SDS011;13809;48.632;11.576;2023-07-02T17:56:01;15.57;;;13.73;;
26034;SDS011;13809;48.632;11.576;2023-07-02T18:01:05;15.40;;;13.80;;
26034;SDS011;13809;48.632;11.576;2023-07-02T18:06:09;14.27;;;12.77;;
26034;SDS011;13809;48.632;11.576;2023-07-02T18:11:12;14.90;;;12.53;;
26034;SDS011;13809;48.632;11.576;2023-07-02T18:16:16;14.20;;;12.50;;
26034;SDS011;13809;48.632;11.576;2023-07-02T18:21:20;13.60;;;12.17;;
26034;SDS011;13809;48.632;11.576;2023-07-02T18:26:24;13.53;;;11.70;;
26034;SDS011;13809;48.632;11.576;2023-07-02T18:31:27;12.90;;;11.43;;
26034;SDS011;13809;48.632;11.576;2023-07-02T18:36:32;12.67;;;11.30;;
26034;SDS011;13809;48.632;11.576;2023-07-02T18:41:35;12.87;;;11.17;;
26034;SDS011;13809;48.632;11.576;2023-07-02T18:46:38;13.57;;;11.43;;
26034;SDS011;13809;48.632;11.576;2023-07-02T18:51:44;13.33;;;11.47;;
26034;SDS011;13809;48.632;11.576;2023-07-02T18:56:47;11.90;;;10.67;;
26034;SDS011;13809;48.632;11.576;2023-07-02T19:01:50;11.73;;;10.57;;
26034;SDS011;13809;48.632;11.576;2023-07-02T19:06:55;11.67;;;10.57;;
26034;SDS011;13809;48.632;11.576;2023-07-02T19:11:59;13.30;;;11.37;;
26034;SDS011;13809;48.632;11.576;2023-07-02T19:17:04;12.73;;;11.03;;
26034;SDS011;13809;48.632;11.576;2023-07-02T19:22:10;11.90;;;10.40;;
26034;SDS011;13809;48.632;11.576;2023-07-02T19:27:14;13.67;;;11.70;;
26034;SDS011;13809;48.632;11.576;2023-07-02T19:32:18;12.90;;;11.60;;
26034;SDS011;13809;48.632;11.576;2023-07-02T19:37:23;13.13;;;11.73;;
26034;SDS011;13809;48.632;11.576;2023-07-02T19:42:26;12.10;;;10.90;;
26034;SDS011;13809;48.632;11.576;2023-07-02T19:47:31;12.47;;;11.17;;
26034;SDS011;13809;48.632;11.576;2023-07-02T19:52:36;12.70;;;11.23;;
26034;SDS011;13809;48.632;11.576;2023-07-02T19:57:39;12.40;;;10.77;;
26034;SDS011;13809;48.632;11.576;2023-07-02T20:02:42;12.83;;;11.53;;
26034;SDS011;13809;48.632;11.576;2023-07-02T20:07:47;12.80;;;11.43;;
26034;SDS011;13809;48.632;11.576;2023-07-02T20:12:50;13.97;;;12.53;;
26034;SDS011;13809;48.632;11.576;2023-07-02T20:17:56;12.67;;;11.47;;
26034;SDS011;13809;48.632;11.576;2023-07-02T20:23:01;12.77;;;11.47;;
26034;SDS011;13809;48.632;11.576;2023-07-02T20:28:04;13.27;;;11.87;;
26034;SDS011;13809;48.632;11.576;2023-07-02T20:33:08;13.00;;;10.97;;
26034;SDS011;13809;48.632;11.576;2023-07-02T20:38:12;13.87;;;12.37;;
26034;SDS011;13809;48.632;11.576;2023-07-02T20:43:15;15.03;;;12.87;;
26034;SDS011;13809;48.632;11.576;2023-07-02T20:48:19;14.67;;;12.03;;
26034;SDS011;13809;48.632;11.576;2023-07-02T20:53:23;14.43;;;12.73;;
26034;SDS011;13809;48.632;11.576;2023-07-02T20:58:27;12.80;;;11.50;;
26034;SDS011;13809;48.632;11.576;2023-07-02T21:03:30;13.47;;;11.90;;
26034;SDS011;13809;48.632;11.576;2023-07-02T21:08:35;12.70;;;11.40;;
26034;SDS011;13809;48.632;11.576;2023-07-02T21:13:39;12.17;;;10.90;;
26034;SDS011;13809;48.632;11.576;2023-07-02T21:18:42;15.00;;;12.77;;
26034;SDS011;13809;48.632;11.576;2023-07-02T21:23:47;12.47;;;11.23;;
26034;SDS011;13809;48.632;11.576;2023-07-02T21:28:50;15.57;;;12.13;;
26034;SDS011;13809;48.632;11.576;2023-07-02T21:33:53;13.67;;;12.23;;
26034;SDS011;13809;48.632;11.576;2023-07-02T21:38:57;12.13;;;10.93;;
26034;SDS011;13809;48.632;11.576;2023-07-02T21:44:01;13.93;;;12.47;;
26034;SDS011;13809;48.632;11.576;2023-07-02T21:49:04;12.13;;;10.93;;
26034;SDS011;13809;48.632;11.576;2023-07-02T21:54:08;14.30;;;12.90;;
26034;SDS011;13809;48.632;11.576;2023-07-02T21:59:11;15.20;;;13.00;;
26034;SDS011;13809;48.632;11.576;2023-07-02T22:04:26;14.10;;;12.63;;
26034;SDS011;13809;48.632;11.576;2023-07-02T22:09:30;13.60;;;12.20;;
26034;SDS011;13809;48.632;11.576;2023-07-02T22:14:33;13.90;;;12.50;;
26034;SDS011;13809;48.632;11.576;2023-07-02T22:19:37;13.47;;;12.07;;
26034;SDS011;13809;48.632;11.576;2023-07-02T22:24:41;13.43;;;12.10;;
26034;SDS011;13809;48.632;11.576;2023-07-02T22:29:47;13.50;;;12.00;;
26034;SDS011;13809;48.632;11.576;2023-07-02T22:34:50;13.87;;;12.47;;
26034;SDS011;13809;48.632;11.576;2023-07-02T22:39:55;13.37;;;12.03;;
26034;SDS011;13809;48.632;11.576;2023-07-02T22:44:59;15.00;;;12.73;;
26034;SDS011;13809;48.632;11.576;2023-07-02T22:50:02;13.50;;;12.10;;
26034;SDS011;13809;48.632;11.576;2023-07-02T22:55:08;14.97;;;13.20;;
26034;SDS011;13809;48.632;11.576;2023-07-02T23:00:12;14.50;;;12.83;;
26034;SDS011;13809;48.632;11.576;2023-07-02T23:05:17;15.40;;;13.83;;
26034;SDS011;13809;48.632;11.576;2023-07-02T23:10:25;15.80;;;13.53;;
26034;SDS011;13809;48.632;11.576;2023-07-02T23:15:28;15.70;;;14.00;;
26034;SDS011;13809;48.632;11.576;2023-07-02T23:20:32;14.70;;;13.17;;
26034;SDS011;13809;48.632;11.576;2023-07-02T23:25:41;16.00;;;14.30;;
26034;SDS011;13809;48.632;11.576;2023-07-02T23:30:47;15.17;;;13.57;;
26034;SDS011;13809;48.632;11.576;2023-07-02T23:35:57;13.43;;;12.10;;
26034;SDS011;13809;48.632;11.576;2023-07-02T23:41:02;15.17;;;13.47;;
26034;SDS011;13809;48.632;11.576;2023-07-02T23:46:05;15.20;;;13.60;;
26034;SDS011;13809;48.632;11.576;2023-07-02T23:51:08;15.17;;;13.67;;
26034;SDS011;13809;48.632;11.576;2023-07-02T23:56:13;16.37;;;14.27;;
